createdAt,value
2022-09-26T06:14:52.533Z,997.47
2022-09-26T06:24:52.442Z,997.31
2022-09-26T06:34:52.836Z,997.11
2022-09-26T06:44:52.661Z,996.93
2022-09-26T06:54:52.528Z,996.86
2022-09-26T07:04:52.475Z,996.78
2022-09-26T07:14:53.825Z,996.77
2022-09-26T07:24:52.689Z,996.74
2022-09-26T07:34:52.549Z,996.52
2022-09-26T07:45:21.837Z,996.48
2022-09-26T07:54:52.625Z,996.37
2022-09-26T08:04:54.575Z,996.25
2022-09-26T08:14:52.541Z,996.20
2022-09-26T08:24:52.724Z,996.26
2022-09-26T08:34:52.438Z,996.09
2022-09-26T08:44:52.654Z,996.04
2022-09-26T08:54:52.698Z,995.95
2022-09-26T09:04:54.051Z,995.76
2022-09-26T09:15:13.756Z,995.73
2022-09-26T09:24:52.756Z,995.69
2022-09-26T09:34:53.954Z,995.54
2022-09-26T09:44:52.728Z,995.32
2022-09-26T09:54:52.629Z,995.29
2022-09-26T10:04:52.584Z,995.25
2022-09-26T10:14:52.820Z,995.19
2022-09-26T10:24:52.795Z,995.02
2022-09-26T10:34:52.793Z,995.04
2022-09-26T10:44:52.731Z,994.85
2022-09-26T10:54:52.784Z,994.87
2022-09-26T11:04:52.826Z,994.80
2022-09-26T11:14:52.798Z,994.65
2022-09-26T11:24:52.813Z,994.65
2022-09-26T11:34:52.718Z,994.52
2022-09-26T11:44:52.696Z,994.37
2022-09-26T11:54:52.831Z,994.16
2022-09-26T12:04:52.791Z,994.05
2022-09-26T12:14:52.847Z,993.98
2022-09-26T12:24:52.837Z,994.04
2022-09-26T12:34:52.705Z,993.97
2022-09-26T12:44:52.751Z,993.90
2022-09-26T12:54:52.754Z,993.78
2022-09-26T13:04:52.890Z,993.69
2022-09-26T13:14:52.826Z,993.53
2022-09-26T13:24:52.915Z,993.42
2022-09-26T13:34:52.808Z,993.26
2022-09-26T13:44:52.771Z,993.13
2022-09-26T13:54:52.937Z,992.98
2022-09-26T14:04:52.807Z,992.94
2022-09-26T14:14:52.811Z,992.80
2022-09-26T14:24:52.826Z,992.73
2022-09-26T14:34:52.810Z,992.60
2022-09-26T14:44:52.919Z,992.53
2022-09-26T14:54:53.117Z,992.34
2022-09-26T15:04:53.040Z,992.21
2022-09-26T15:14:52.957Z,992.07
2022-09-26T15:24:53.105Z,991.86
2022-09-26T15:34:52.991Z,991.67
2022-09-26T15:44:52.937Z,991.49
2022-09-26T15:54:53.057Z,991.42
2022-09-26T16:04:53.129Z,991.21
2022-09-26T16:14:53.038Z,991.12
2022-09-26T16:24:53.166Z,990.96
2022-09-26T16:34:53.128Z,990.85
2022-09-26T16:44:53.002Z,990.77
2022-09-26T16:54:53.196Z,990.84
2022-09-26T17:04:53.177Z,990.77
2022-09-26T17:14:53.192Z,990.69
2022-09-26T17:24:53.115Z,990.64
2022-09-26T17:34:53.205Z,990.66
2022-09-26T17:44:53.183Z,990.59
2022-09-26T17:54:53.238Z,990.41
2022-09-26T18:04:53.161Z,990.29
2022-09-26T18:14:53.094Z,990.13
2022-09-26T18:24:53.202Z,990.03
2022-09-26T18:34:53.315Z,990.02
2022-09-26T18:44:53.495Z,989.93
2022-09-26T18:54:53.523Z,989.85
2022-09-26T19:04:53.764Z,989.81
2022-09-26T19:14:53.908Z,989.74
